sensor_id;sensor_type;location;lat;lon;timestamp;P1;durP1;ratioP1;P2;durP2;ratioP2
45887;SDS011;31595;51.418;7.572;2022-10-15T00:01:03;9.82;;;8.82;;
45887;SDS011;31595;51.418;7.572;2022-10-15T00:03:35;10.35;;;9.18;;
45887;SDS011;31595;51.418;7.572;2022-10-15T00:06:04;10.77;;;9.68;;
45887;SDS011;31595;51.418;7.572;2022-10-15T00:08:32;10.05;;;9.07;;
45887;SDS011;31595;51.418;7.572;2022-10-15T00:11:03;9.90;;;8.90;;
45887;SDS011;31595;51.418;7.572;2022-10-15T00:13:32;10.68;;;9.60;;
45887;SDS011;31595;51.418;7.572;2022-10-15T00:15:59;12.35;;;10.70;;
45887;SDS011;31595;51.418;7.572;2022-10-15T00:18:27;11.48;;;10.27;;
45887;SDS011;31595;51.418;7.572;2022-10-15T00:20:56;11.02;;;9.93;;
45887;SDS011;31595;51.418;7.572;2022-10-15T00:23:23;10.23;;;9.32;;
45887;SDS011;31595;51.418;7.572;2022-10-15T00:25:59;10.82;;;9.55;;
45887;SDS011;31595;51.418;7.572;2022-10-15T00:28:27;10.98;;;9.60;;
45887;SDS011;31595;51.418;7.572;2022-10-15T00:30:58;11.82;;;10.63;;
45887;SDS011;31595;51.418;7.572;2022-10-15T00:33:26;14.50;;;13.02;;
45887;SDS011;31595;51.418;7.572;2022-10-15T00:36:02;12.93;;;11.60;;
45887;SDS011;31595;51.418;7.572;2022-10-15T00:38:31;13.25;;;11.90;;
45887;SDS011;31595;51.418;7.572;2022-10-15T00:41:02;13.68;;;11.88;;
45887;SDS011;31595;51.418;7.572;2022-10-15T00:43:37;12.93;;;11.68;;
45887;SDS011;31595;51.418;7.572;2022-10-15T00:46:06;12.40;;;11.18;;
45887;SDS011;31595;51.418;7.572;2022-10-15T00:48:42;11.80;;;10.40;;
45887;SDS011;31595;51.418;7.572;2022-10-15T00:51:12;12.20;;;10.27;;
45887;SDS011;31595;51.418;7.572;2022-10-15T00:53:40;11.38;;;10.18;;
45887;SDS011;31595;51.418;7.572;2022-10-15T00:56:08;11.52;;;10.32;;
45887;SDS011;31595;51.418;7.572;2022-10-15T00:58:35;11.05;;;9.95;;
45887;SDS011;31595;51.418;7.572;2022-10-15T01:01:03;10.57;;;9.48;;
45887;SDS011;31595;51.418;7.572;2022-10-15T01:03:31;10.73;;;9.15;;
45887;SDS011;31595;51.418;7.572;2022-10-15T01:05:59;10.73;;;9.63;;
45887;SDS011;31595;51.418;7.572;2022-10-15T01:08:30;10.77;;;9.68;;
45887;SDS011;31595;51.418;7.572;2022-10-15T01:10:59;14.00;;;9.80;;
45887;SDS011;31595;51.418;7.572;2022-10-15T01:13:47;10.98;;;9.88;;
45887;SDS011;31595;51.418;7.572;2022-10-15T01:16:28;11.10;;;9.55;;
45887;SDS011;31595;51.418;7.572;2022-10-15T01:19:03;15.00;;;10.95;;
45887;SDS011;31595;51.418;7.572;2022-10-15T01:21:46;14.20;;;11.95;;
45887;SDS011;31595;51.418;7.572;2022-10-15T01:27:33;12.80;;;10.95;;
45887;SDS011;31595;51.418;7.572;2022-10-15T01:33:09;12.05;;;10.57;;
45887;SDS011;31595;51.418;7.572;2022-10-15T01:35:50;11.57;;;9.82;;
45887;SDS011;31595;51.418;7.572;2022-10-15T01:38:25;12.38;;;10.35;;
45887;SDS011;31595;51.418;7.572;2022-10-15T01:41:02;11.52;;;10.43;;
45887;SDS011;31595;51.418;7.572;2022-10-15T01:43:42;12.88;;;10.25;;
45887;SDS011;31595;51.418;7.572;2022-10-15T01:46:15;10.73;;;9.02;;
45887;SDS011;31595;51.418;7.572;2022-10-15T01:48:46;11.13;;;8.85;;
45887;SDS011;31595;51.418;7.572;2022-10-15T01:51:16;10.65;;;8.88;;
45887;SDS011;31595;51.418;7.572;2022-10-15T01:53:44;9.02;;;7.63;;
45887;SDS011;31595;51.418;7.572;2022-10-15T01:56:14;10.68;;;7.97;;
45887;SDS011;31595;51.418;7.572;2022-10-15T01:58:46;8.82;;;7.47;;
45887;SDS011;31595;51.418;7.572;2022-10-15T02:01:18;11.45;;;9.57;;
45887;SDS011;31595;51.418;7.572;2022-10-15T02:03:45;8.40;;;7.35;;
45887;SDS011;31595;51.418;7.572;2022-10-15T02:06:15;8.73;;;7.82;;
45887;SDS011;31595;51.418;7.572;2022-10-15T02:08:51;9.13;;;8.23;;
45887;SDS011;31595;51.418;7.572;2022-10-15T02:11:43;10.43;;;8.02;;
45887;SDS011;31595;51.418;7.572;2022-10-15T02:14:26;9.55;;;7.85;;
45887;SDS011;31595;51.418;7.572;2022-10-15T02:17:04;11.00;;;8.70;;
45887;SDS011;31595;51.418;7.572;2022-10-15T02:19:38;15.90;;;9.88;;
45887;SDS011;31595;51.418;7.572;2022-10-15T02:22:12;23.77;;;11.95;;
45887;SDS011;31595;51.418;7.572;2022-10-15T02:24:44;23.60;;;11.80;;
45887;SDS011;31595;51.418;7.572;2022-10-15T02:27:16;16.30;;;9.95;;
45887;SDS011;31595;51.418;7.572;2022-10-15T02:29:46;14.98;;;10.95;;
45887;SDS011;31595;51.418;7.572;2022-10-15T02:32:22;11.77;;;9.75;;
45887;SDS011;31595;51.418;7.572;2022-10-15T02:34:51;10.98;;;9.85;;
45887;SDS011;31595;51.418;7.572;2022-10-15T02:37:20;12.93;;;10.68;;
45887;SDS011;31595;51.418;7.572;2022-10-15T02:39:50;10.00;;;8.93;;
45887;SDS011;31595;51.418;7.572;2022-10-15T02:42:20;10.13;;;8.95;;
45887;SDS011;31595;51.418;7.572;2022-10-15T02:44:48;9.40;;;8.20;;
45887;SDS011;31595;51.418;7.572;2022-10-15T02:47:15;10.85;;;9.27;;
45887;SDS011;31595;51.418;7.572;2022-10-15T02:49:44;10.23;;;9.23;;
45887;SDS011;31595;51.418;7.572;2022-10-15T02:52:11;10.82;;;9.73;;
45887;SDS011;31595;51.418;7.572;2022-10-15T02:54:38;9.98;;;8.95;;
45887;SDS011;31595;51.418;7.572;2022-10-15T02:57:06;12.35;;;9.85;;
45887;SDS011;31595;51.418;7.572;2022-10-15T02:59:33;10.73;;;9.63;;
45887;SDS011;31595;51.418;7.572;2022-10-15T03:02:01;11.55;;;10.27;;
45887;SDS011;31595;51.418;7.572;2022-10-15T03:04:28;11.15;;;9.50;;
45887;SDS011;31595;51.418;7.572;2022-10-15T03:06:57;12.82;;;10.73;;
45887;SDS011;31595;51.418;7.572;2022-10-15T03:09:27;12.13;;;10.82;;
45887;SDS011;31595;51.418;7.572;2022-10-15T03:11:54;12.25;;;10.98;;
45887;SDS011;31595;51.418;7.572;2022-10-15T03:14:21;13.13;;;11.65;;
45887;SDS011;31595;51.418;7.572;2022-10-15T03:16:49;20.33;;;17.10;;
45887;SDS011;31595;51.418;7.572;2022-10-15T03:19:16;21.08;;;18.05;;
45887;SDS011;31595;51.418;7.572;2022-10-15T03:21:43;14.27;;;12.77;;
45887;SDS011;31595;51.418;7.572;2022-10-15T03:24:12;22.30;;;17.60;;
45887;SDS011;31595;51.418;7.572;2022-10-15T03:26:39;20.03;;;16.93;;
45887;SDS011;31595;51.418;7.572;2022-10-15T03:29:07;21.00;;;17.70;;
45887;SDS011;31595;51.418;7.572;2022-10-15T03:31:36;24.95;;;20.40;;
45887;SDS011;31595;51.418;7.572;2022-10-15T03:34:04;19.02;;;15.60;;
45887;SDS011;31595;51.418;7.572;2022-10-15T03:36:31;28.15;;;22.27;;
45887;SDS011;31595;51.418;7.572;2022-10-15T03:38:58;26.70;;;21.48;;
45887;SDS011;31595;51.418;7.572;2022-10-15T03:41:27;27.75;;;22.70;;
45887;SDS011;31595;51.418;7.572;2022-10-15T03:43:54;26.70;;;21.42;;
45887;SDS011;31595;51.418;7.572;2022-10-15T03:46:26;27.90;;;21.83;;
45887;SDS011;31595;51.418;7.572;2022-10-15T03:48:54;31.15;;;24.33;;
45887;SDS011;31595;51.418;7.572;2022-10-15T03:51:21;24.30;;;19.55;;
45887;SDS011;31595;51.418;7.572;2022-10-15T03:53:48;25.50;;;19.95;;
45887;SDS011;31595;51.418;7.572;2022-10-15T03:56:15;24.50;;;20.13;;
45887;SDS011;31595;51.418;7.572;2022-10-15T03:58:44;34.45;;;25.15;;
45887;SDS011;31595;51.418;7.572;2022-10-15T04:01:12;31.25;;;22.83;;
45887;SDS011;31595;51.418;7.572;2022-10-15T04:03:42;26.80;;;22.63;;
45887;SDS011;31595;51.418;7.572;2022-10-15T04:06:09;25.35;;;20.63;;
45887;SDS011;31595;51.418;7.572;2022-10-15T04:08:36;25.67;;;19.52;;
45887;SDS011;31595;51.418;7.572;2022-10-15T04:11:04;24.27;;;19.30;;
45887;SDS011;31595;51.418;7.572;2022-10-15T04:13:31;24.63;;;20.02;;
45887;SDS011;31595;51.418;7.572;2022-10-15T04:16:02;26.05;;;20.52;;
45887;SDS011;31595;51.418;7.572;2022-10-15T04:18:33;23.48;;;19.65;;
45887;SDS011;31595;51.418;7.572;2022-10-15T04:21:00;23.83;;;18.92;;
45887;SDS011;31595;51.418;7.572;2022-10-15T04:23:28;28.42;;;20.95;;
45887;SDS011;31595;51.418;7.572;2022-10-15T04:25:57;23.15;;;18.40;;
45887;SDS011;31595;51.418;7.572;2022-10-15T04:28:27;23.55;;;18.13;;
45887;SDS011;31595;51.418;7.572;2022-10-15T04:30:55;24.33;;;19.42;;
45887;SDS011;31595;51.418;7.572;2022-10-15T04:33:25;29.48;;;20.92;;
45887;SDS011;31595;51.418;7.572;2022-10-15T04:35:59;26.70;;;20.63;;
45887;SDS011;31595;51.418;7.572;2022-10-15T04:38:27;26.70;;;19.67;;
45887;SDS011;31595;51.418;7.572;2022-10-15T04:40:58;31.70;;;23.23;;
45887;SDS011;31595;51.418;7.572;2022-10-15T04:43:27;27.80;;;20.60;;
45887;SDS011;31595;51.418;7.572;2022-10-15T04:45:55;28.55;;;20.67;;
45887;SDS011;31595;51.418;7.572;2022-10-15T04:48:26;28.13;;;20.60;;
45887;SDS011;31595;51.418;7.572;2022-10-15T04:50:54;27.08;;;20.38;;
45887;SDS011;31595;51.418;7.572;2022-10-15T04:53:21;29.20;;;21.48;;
45887;SDS011;31595;51.418;7.572;2022-10-15T04:55:48;31.00;;;21.98;;
45887;SDS011;31595;51.418;7.572;2022-10-15T04:58:16;33.85;;;23.50;;
45887;SDS011;31595;51.418;7.572;2022-10-15T05:00:43;32.42;;;22.95;;
45887;SDS011;31595;51.418;7.572;2022-10-15T05:03:10;31.20;;;22.92;;
45887;SDS011;31595;51.418;7.572;2022-10-15T05:05:39;30.88;;;22.75;;
45887;SDS011;31595;51.418;7.572;2022-10-15T05:08:06;33.47;;;23.35;;
45887;SDS011;31595;51.418;7.572;2022-10-15T05:10:33;31.85;;;23.02;;
45887;SDS011;31595;51.418;7.572;2022-10-15T05:13:00;34.95;;;23.13;;
45887;SDS011;31595;51.418;7.572;2022-10-15T05:15:28;31.75;;;24.98;;
45887;SDS011;31595;51.418;7.572;2022-10-15T05:17:58;31.35;;;23.75;;
45887;SDS011;31595;51.418;7.572;2022-10-15T05:20:25;33.55;;;23.42;;
45887;SDS011;31595;51.418;7.572;2022-10-15T05:22:54;27.02;;;20.00;;
45887;SDS011;31595;51.418;7.572;2022-10-15T05:25:21;28.05;;;20.75;;
45887;SDS011;31595;51.418;7.572;2022-10-15T05:27:48;25.52;;;18.73;;
45887;SDS011;31595;51.418;7.572;2022-10-15T05:30:16;29.73;;;20.45;;
45887;SDS011;31595;51.418;7.572;2022-10-15T05:32:43;24.67;;;17.77;;
45887;SDS011;31595;51.418;7.572;2022-10-15T05:35:10;28.33;;;21.77;;
45887;SDS011;31595;51.418;7.572;2022-10-15T05:37:38;25.20;;;19.83;;
45887;SDS011;31595;51.418;7.572;2022-10-15T05:40:07;27.25;;;20.83;;
45887;SDS011;31595;51.418;7.572;2022-10-15T05:42:35;27.08;;;20.90;;
45887;SDS011;31595;51.418;7.572;2022-10-15T05:45:02;24.60;;;18.40;;
45887;SDS011;31595;51.418;7.572;2022-10-15T05:47:32;24.15;;;18.13;;
45887;SDS011;31595;51.418;7.572;2022-10-15T05:49:59;26.40;;;19.55;;
45887;SDS011;31595;51.418;7.572;2022-10-15T05:52:26;25.52;;;20.17;;
45887;SDS011;31595;51.418;7.572;2022-10-15T05:54:54;23.70;;;18.50;;
45887;SDS011;31595;51.418;7.572;2022-10-15T05:57:25;26.02;;;19.73;;
45887;SDS011;31595;51.418;7.572;2022-10-15T05:59:52;25.88;;;18.85;;
45887;SDS011;31595;51.418;7.572;2022-10-15T06:02:19;27.42;;;20.23;;
45887;SDS011;31595;51.418;7.572;2022-10-15T06:04:46;26.00;;;19.40;;
45887;SDS011;31595;51.418;7.572;2022-10-15T06:07:14;25.40;;;17.63;;
45887;SDS011;31595;51.418;7.572;2022-10-15T06:09:41;28.48;;;21.55;;
45887;SDS011;31595;51.418;7.572;2022-10-15T06:12:08;27.73;;;19.42;;
45887;SDS011;31595;51.418;7.572;2022-10-15T06:14:37;24.90;;;18.00;;
45887;SDS011;31595;51.418;7.572;2022-10-15T06:17:04;23.50;;;17.42;;
45887;SDS011;31595;51.418;7.572;2022-10-15T06:19:32;24.27;;;19.02;;
45887;SDS011;31595;51.418;7.572;2022-10-15T06:21:59;21.98;;;17.48;;
45887;SDS011;31595;51.418;7.572;2022-10-15T06:24:26;23.30;;;17.98;;
45887;SDS011;31595;51.418;7.572;2022-10-15T06:26:53;24.75;;;19.80;;
45887;SDS011;31595;51.418;7.572;2022-10-15T06:29:20;22.50;;;16.48;;
45887;SDS011;31595;51.418;7.572;2022-10-15T06:31:49;23.52;;;16.92;;
45887;SDS011;31595;51.418;7.572;2022-10-15T06:34:16;26.30;;;16.15;;
45887;SDS011;31595;51.418;7.572;2022-10-15T06:36:44;23.08;;;18.52;;
45887;SDS011;31595;51.418;7.572;2022-10-15T06:39:11;20.52;;;16.52;;
45887;SDS011;31595;51.418;7.572;2022-10-15T06:41:41;20.38;;;16.23;;
45887;SDS011;31595;51.418;7.572;2022-10-15T06:44:08;20.48;;;16.50;;
45887;SDS011;31595;51.418;7.572;2022-10-15T06:46:38;22.25;;;18.17;;
45887;SDS011;31595;51.418;7.572;2022-10-15T06:49:06;22.20;;;17.48;;
45887;SDS011;31595;51.418;7.572;2022-10-15T06:51:35;20.73;;;17.13;;
45887;SDS011;31595;51.418;7.572;2022-10-15T06:54:03;19.77;;;16.08;;
45887;SDS011;31595;51.418;7.572;2022-10-15T06:56:30;19.83;;;16.77;;
45887;SDS011;31595;51.418;7.572;2022-10-15T06:58:57;19.42;;;15.45;;
45887;SDS011;31595;51.418;7.572;2022-10-15T07:01:25;17.70;;;14.70;;
45887;SDS011;31595;51.418;7.572;2022-10-15T07:03:52;20.85;;;18.08;;
45887;SDS011;31595;51.418;7.572;2022-10-15T07:06:20;22.60;;;19.02;;
45887;SDS011;31595;51.418;7.572;2022-10-15T07:08:48;21.27;;;16.58;;
45887;SDS011;31595;51.418;7.572;2022-10-15T07:11:18;21.05;;;16.42;;
45887;SDS011;31595;51.418;7.572;2022-10-15T07:13:45;22.67;;;18.10;;
45887;SDS011;31595;51.418;7.572;2022-10-15T07:16:13;20.05;;;17.45;;
45887;SDS011;31595;51.418;7.572;2022-10-15T07:18:41;22.15;;;18.27;;
45887;SDS011;31595;51.418;7.572;2022-10-15T07:21:13;23.67;;;19.38;;
45887;SDS011;31595;51.418;7.572;2022-10-15T07:23:41;22.88;;;19.85;;
45887;SDS011;31595;51.418;7.572;2022-10-15T07:26:09;20.80;;;17.00;;
45887;SDS011;31595;51.418;7.572;2022-10-15T07:28:36;19.55;;;16.45;;
45887;SDS011;31595;51.418;7.572;2022-10-15T07:31:05;21.85;;;17.60;;
45887;SDS011;31595;51.418;7.572;2022-10-15T07:33:33;21.90;;;18.30;;
45887;SDS011;31595;51.418;7.572;2022-10-15T07:36:01;21.80;;;17.40;;
45887;SDS011;31595;51.418;7.572;2022-10-15T07:38:30;21.33;;;18.67;;
45887;SDS011;31595;51.418;7.572;2022-10-15T07:40:59;22.52;;;19.30;;
45887;SDS011;31595;51.418;7.572;2022-10-15T07:43:28;21.08;;;17.33;;
45887;SDS011;31595;51.418;7.572;2022-10-15T07:45:56;18.92;;;16.55;;
45887;SDS011;31595;51.418;7.572;2022-10-15T07:48:24;19.60;;;17.50;;
45887;SDS011;31595;51.418;7.572;2022-10-15T07:50:54;21.15;;;18.05;;
45887;SDS011;31595;51.418;7.572;2022-10-15T07:53:22;19.42;;;17.35;;
45887;SDS011;31595;51.418;7.572;2022-10-15T07:55:50;20.27;;;18.27;;
45887;SDS011;31595;51.418;7.572;2022-10-15T07:58:19;20.05;;;18.05;;
45887;SDS011;31595;51.418;7.572;2022-10-15T08:00:46;18.85;;;16.85;;
45887;SDS011;31595;51.418;7.572;2022-10-15T08:03:13;18.55;;;15.90;;
45887;SDS011;31595;51.418;7.572;2022-10-15T08:05:40;17.80;;;16.00;;
45887;SDS011;31595;51.418;7.572;2022-10-15T08:08:08;18.40;;;16.55;;
45887;SDS011;31595;51.418;7.572;2022-10-15T08:10:35;18.10;;;16.05;;
45887;SDS011;31595;51.418;7.572;2022-10-15T08:13:02;19.20;;;17.20;;
45887;SDS011;31595;51.418;7.572;2022-10-15T08:15:31;18.50;;;16.40;;
45887;SDS011;31595;51.418;7.572;2022-10-15T08:17:58;19.10;;;16.83;;
45887;SDS011;31595;51.418;7.572;2022-10-15T08:20:26;19.15;;;17.15;;
45887;SDS011;31595;51.418;7.572;2022-10-15T08:22:53;21.00;;;18.33;;
45887;SDS011;31595;51.418;7.572;2022-10-15T08:25:20;22.98;;;17.45;;
45887;SDS011;31595;51.418;7.572;2022-10-15T08:27:47;19.05;;;15.95;;
45887;SDS011;31595;51.418;7.572;2022-10-15T08:30:15;18.65;;;16.35;;
45887;SDS011;31595;51.418;7.572;2022-10-15T08:32:43;16.95;;;15.15;;
45887;SDS011;31595;51.418;7.572;2022-10-15T08:35:11;19.38;;;16.55;;
45887;SDS011;31595;51.418;7.572;2022-10-15T08:37:38;18.50;;;14.68;;
45887;SDS011;31595;51.418;7.572;2022-10-15T08:40:06;18.55;;;16.65;;
45887;SDS011;31595;51.418;7.572;2022-10-15T08:42:36;18.90;;;16.27;;
45887;SDS011;31595;51.418;7.572;2022-10-15T08:45:06;17.38;;;14.20;;
45887;SDS011;31595;51.418;7.572;2022-10-15T08:47:40;19.02;;;15.13;;
45887;SDS011;31595;51.418;7.572;2022-10-15T08:50:15;14.82;;;13.27;;
45887;SDS011;31595;51.418;7.572;2022-10-15T08:52:52;13.68;;;12.25;;
45887;SDS011;31595;51.418;7.572;2022-10-15T08:55:21;13.88;;;12.50;;
45887;SDS011;31595;51.418;7.572;2022-10-15T08:57:51;12.73;;;11.43;;
45887;SDS011;31595;51.418;7.572;2022-10-15T09:00:23;13.23;;;11.95;;
45887;SDS011;31595;51.418;7.572;2022-10-15T09:02:56;11.30;;;10.20;;
45887;SDS011;31595;51.418;7.572;2022-10-15T09:05:31;12.02;;;10.73;;
45887;SDS011;31595;51.418;7.572;2022-10-15T09:08:18;10.70;;;9.70;;
45887;SDS011;31595;51.418;7.572;2022-10-15T09:10:51;11.15;;;10.13;;
45887;SDS011;31595;51.418;7.572;2022-10-15T09:13:24;9.07;;;8.27;;
45887;SDS011;31595;51.418;7.572;2022-10-15T09:15:54;9.40;;;8.50;;
45887;SDS011;31595;51.418;7.572;2022-10-15T09:18:26;8.60;;;7.80;;
45887;SDS011;31595;51.418;7.572;2022-10-15T09:20:58;8.55;;;7.75;;
45887;SDS011;31595;51.418;7.572;2022-10-15T09:23:27;7.97;;;7.18;;
45887;SDS011;31595;51.418;7.572;2022-10-15T09:25:57;7.70;;;7.00;;
45887;SDS011;31595;51.418;7.572;2022-10-15T09:28:29;8.00;;;6.35;;
45887;SDS011;31595;51.418;7.572;2022-10-15T09:31:04;6.10;;;5.50;;
45887;SDS011;31595;51.418;7.572;2022-10-15T09:33:36;4.47;;;4.07;;
45887;SDS011;31595;51.418;7.572;2022-10-15T09:36:13;4.80;;;3.55;;
45887;SDS011;31595;51.418;7.572;2022-10-15T09:38:57;3.35;;;3.05;;
45887;SDS011;31595;51.418;7.572;2022-10-15T09:41:34;3.58;;;2.72;;
45887;SDS011;31595;51.418;7.572;2022-10-15T09:44:11;3.42;;;2.83;;
45887;SDS011;31595;51.418;7.572;2022-10-15T09:46:43;3.42;;;2.40;;
45887;SDS011;31595;51.418;7.572;2022-10-15T09:49:11;4.43;;;2.40;;
45887;SDS011;31595;51.418;7.572;2022-10-15T09:51:49;3.25;;;2.17;;
45887;SDS011;31595;51.418;7.572;2022-10-15T09:54:26;3.33;;;2.30;;
45887;SDS011;31595;51.418;7.572;2022-10-15T09:57:06;2.60;;;1.52;;
45887;SDS011;31595;51.418;7.572;2022-10-15T09:59:35;2.08;;;1.60;;
45887;SDS011;31595;51.418;7.572;2022-10-15T10:02:03;3.95;;;1.50;;
45887;SDS011;31595;51.418;7.572;2022-10-15T10:04:42;2.03;;;1.33;;
45887;SDS011;31595;51.418;7.572;2022-10-15T10:07:22;2.20;;;1.50;;
45887;SDS011;31595;51.418;7.572;2022-10-15T10:09:55;2.55;;;1.27;;
45887;SDS011;31595;51.418;7.572;2022-10-15T10:12:24;1.50;;;1.00;;
45887;SDS011;31595;51.418;7.572;2022-10-15T10:14:55;2.47;;;1.10;;
45887;SDS011;31595;51.418;7.572;2022-10-15T10:17:24;2.72;;;0.80;;
45887;SDS011;31595;51.418;7.572;2022-10-15T10:20:08;1.60;;;0.90;;
45887;SDS011;31595;51.418;7.572;2022-10-15T10:22:42;1.13;;;0.70;;
45887;SDS011;31595;51.418;7.572;2022-10-15T10:25:22;1.63;;;0.95;;
45887;SDS011;31595;51.418;7.572;2022-10-15T10:28:05;1.08;;;0.68;;
45887;SDS011;31595;51.418;7.572;2022-10-15T10:30:46;1.08;;;0.73;;
45887;SDS011;31595;51.418;7.572;2022-10-15T10:33:20;0.90;;;0.60;;
45887;SDS011;31595;51.418;7.572;2022-10-15T10:35:52;1.10;;;0.60;;
45887;SDS011;31595;51.418;7.572;2022-10-15T10:38:22;1.58;;;0.60;;
45887;SDS011;31595;51.418;7.572;2022-10-15T10:40:51;2.13;;;0.70;;
45887;SDS011;31595;51.418;7.572;2022-10-15T10:43:22;1.20;;;0.70;;
45887;SDS011;31595;51.418;7.572;2022-10-15T10:45:52;1.67;;;0.65;;
45887;SDS011;31595;51.418;7.572;2022-10-15T10:50:48;1.10;;;0.60;;
45887;SDS011;31595;51.418;7.572;2022-10-15T10:53:29;0.90;;;0.60;;
45887;SDS011;31595;51.418;7.572;2022-10-15T10:55:57;1.20;;;0.60;;
45887;SDS011;31595;51.418;7.572;2022-10-15T10:58:28;0.90;;;0.50;;
45887;SDS011;31595;51.418;7.572;2022-10-15T11:00:59;1.45;;;0.70;;
45887;SDS011;31595;51.418;7.572;2022-10-15T11:03:29;1.10;;;0.70;;
45887;SDS011;31595;51.418;7.572;2022-10-15T11:06:13;1.05;;;0.65;;
45887;SDS011;31595;51.418;7.572;2022-10-15T11:08:52;1.33;;;0.63;;
45887;SDS011;31595;51.418;7.572;2022-10-15T11:11:28;1.27;;;0.50;;
45887;SDS011;31595;51.418;7.572;2022-10-15T11:14:04;1.80;;;0.50;;
45887;SDS011;31595;51.418;7.572;2022-10-15T11:16:44;1.00;;;0.40;;
45887;SDS011;31595;51.418;7.572;2022-10-15T11:19:22;0.75;;;0.40;;
45887;SDS011;31595;51.418;7.572;2022-10-15T11:22:01;2.95;;;0.73;;
45887;SDS011;31595;51.418;7.572;2022-10-15T11:24:44;2.00;;;0.63;;
45887;SDS011;31595;51.418;7.572;2022-10-15T11:27:25;1.85;;;0.82;;
45887;SDS011;31595;51.418;7.572;2022-10-15T11:30:09;1.63;;;0.63;;
45887;SDS011;31595;51.418;7.572;2022-10-15T11:32:54;1.00;;;0.80;;
45887;SDS011;31595;51.418;7.572;2022-10-15T11:35:36;0.98;;;0.70;;
45887;SDS011;31595;51.418;7.572;2022-10-15T11:38:13;2.30;;;0.75;;
45887;SDS011;31595;51.418;7.572;2022-10-15T11:40:50;1.67;;;0.60;;
45887;SDS011;31595;51.418;7.572;2022-10-15T11:43:35;1.10;;;0.70;;
45887;SDS011;31595;51.418;7.572;2022-10-15T11:46:13;1.10;;;0.60;;
45887;SDS011;31595;51.418;7.572;2022-10-15T11:48:54;2.15;;;0.75;;
45887;SDS011;31595;51.418;7.572;2022-10-15T11:51:31;1.05;;;0.60;;
45887;SDS011;31595;51.418;7.572;2022-10-15T11:54:15;1.20;;;0.70;;
45887;SDS011;31595;51.418;7.572;2022-10-15T11:56:57;1.30;;;0.60;;
45887;SDS011;31595;51.418;7.572;2022-10-15T11:59:29;0.95;;;0.57;;
45887;SDS011;31595;51.418;7.572;2022-10-15T12:02:02;1.52;;;0.80;;
45887;SDS011;31595;51.418;7.572;2022-10-15T12:04:37;1.65;;;0.90;;
45887;SDS011;31595;51.418;7.572;2022-10-15T12:07:10;1.30;;;0.77;;
45887;SDS011;31595;51.418;7.572;2022-10-15T12:09:43;1.00;;;0.60;;
45887;SDS011;31595;51.418;7.572;2022-10-15T12:12:20;0.95;;;0.55;;
45887;SDS011;31595;51.418;7.572;2022-10-15T12:15:02;1.40;;;0.80;;
45887;SDS011;31595;51.418;7.572;2022-10-15T12:17:45;1.55;;;1.00;;
45887;SDS011;31595;51.418;7.572;2022-10-15T12:20:17;1.95;;;1.25;;
45887;SDS011;31595;51.418;7.572;2022-10-15T12:22:53;2.15;;;0.60;;
45887;SDS011;31595;51.418;7.572;2022-10-15T12:28:14;1.63;;;0.60;;
45887;SDS011;31595;51.418;7.572;2022-10-15T12:33:36;1.45;;;0.90;;
45887;SDS011;31595;51.418;7.572;2022-10-15T12:36:19;2.45;;;0.80;;
45887;SDS011;31595;51.418;7.572;2022-10-15T12:38:55;0.98;;;0.73;;
45887;SDS011;31595;51.418;7.572;2022-10-15T12:41:34;1.55;;;0.60;;
45887;SDS011;31595;51.418;7.572;2022-10-15T12:44:07;0.80;;;0.50;;
45887;SDS011;31595;51.418;7.572;2022-10-15T12:46:45;2.45;;;0.60;;
45887;SDS011;31595;51.418;7.572;2022-10-15T12:55:27;0.68;;;0.47;;
45887;SDS011;31595;51.418;7.572;2022-10-15T12:57:59;3.70;;;0.70;;
45887;SDS011;31595;51.418;7.572;2022-10-15T13:00:31;1.40;;;0.40;;
45887;SDS011;31595;51.418;7.572;2022-10-15T13:06:12;1.35;;;0.88;;
45887;SDS011;31595;51.418;7.572;2022-10-15T13:08:42;1.65;;;0.45;;
45887;SDS011;31595;51.418;7.572;2022-10-15T13:11:17;2.20;;;0.63;;
45887;SDS011;31595;51.418;7.572;2022-10-15T13:13:48;1.73;;;0.63;;
45887;SDS011;31595;51.418;7.572;2022-10-15T13:16:18;1.10;;;0.50;;
45887;SDS011;31595;51.418;7.572;2022-10-15T13:18:48;1.10;;;0.60;;
45887;SDS011;31595;51.418;7.572;2022-10-15T13:21:20;1.45;;;0.50;;
45887;SDS011;31595;51.418;7.572;2022-10-15T13:23:49;1.00;;;0.60;;
45887;SDS011;31595;51.418;7.572;2022-10-15T13:26:17;0.88;;;0.47;;
45887;SDS011;31595;51.418;7.572;2022-10-15T13:28:47;0.93;;;0.50;;
45887;SDS011;31595;51.418;7.572;2022-10-15T13:31:16;0.73;;;0.50;;
45887;SDS011;31595;51.418;7.572;2022-10-15T13:33:49;1.05;;;0.60;;
45887;SDS011;31595;51.418;7.572;2022-10-15T13:36:19;0.90;;;0.50;;
45887;SDS011;31595;51.418;7.572;2022-10-15T13:38:55;0.63;;;0.40;;
45887;SDS011;31595;51.418;7.572;2022-10-15T13:41:25;0.80;;;0.50;;
45887;SDS011;31595;51.418;7.572;2022-10-15T13:43:54;2.13;;;0.40;;
45887;SDS011;31595;51.418;7.572;2022-10-15T13:46:25;1.73;;;0.50;;
45887;SDS011;31595;51.418;7.572;2022-10-15T13:48:56;0.80;;;0.50;;
45887;SDS011;31595;51.418;7.572;2022-10-15T13:51:27;1.00;;;0.50;;
45887;SDS011;31595;51.418;7.572;2022-10-15T13:53:59;2.83;;;0.60;;
45887;SDS011;31595;51.418;7.572;2022-10-15T13:56:28;0.90;;;0.50;;
45887;SDS011;31595;51.418;7.572;2022-10-15T13:58:59;1.00;;;0.63;;
45887;SDS011;31595;51.418;7.572;2022-10-15T14:01:29;1.50;;;0.70;;
45887;SDS011;31595;51.418;7.572;2022-10-15T14:03:59;1.63;;;0.55;;
45887;SDS011;31595;51.418;7.572;2022-10-15T14:06:28;1.10;;;0.70;;
45887;SDS011;31595;51.418;7.572;2022-10-15T14:08:57;2.67;;;1.10;;
45887;SDS011;31595;51.418;7.572;2022-10-15T14:11:27;2.03;;;0.65;;
45887;SDS011;31595;51.418;7.572;2022-10-15T14:13:56;3.75;;;0.50;;
45887;SDS011;31595;51.418;7.572;2022-10-15T14:16:26;1.05;;;0.60;;
45887;SDS011;31595;51.418;7.572;2022-10-15T14:18:57;1.05;;;0.50;;
45887;SDS011;31595;51.418;7.572;2022-10-15T14:21:34;1.10;;;0.70;;
45887;SDS011;31595;51.418;7.572;2022-10-15T14:26:32;1.10;;;0.80;;
45887;SDS011;31595;51.418;7.572;2022-10-15T14:29:02;1.02;;;0.68;;
45887;SDS011;31595;51.418;7.572;2022-10-15T14:31:32;1.27;;;0.45;;
45887;SDS011;31595;51.418;7.572;2022-10-15T14:40:10;1.80;;;0.73;;
45887;SDS011;31595;51.418;7.572;2022-10-15T14:42:42;1.23;;;0.80;;
45887;SDS011;31595;51.418;7.572;2022-10-15T14:45:10;1.40;;;0.70;;
45887;SDS011;31595;51.418;7.572;2022-10-15T14:47:39;1.00;;;0.70;;
45887;SDS011;31595;51.418;7.572;2022-10-15T14:50:09;1.40;;;0.70;;
45887;SDS011;31595;51.418;7.572;2022-10-15T14:52:42;1.63;;;0.80;;
45887;SDS011;31595;51.418;7.572;2022-10-15T14:55:15;1.75;;;0.60;;
45887;SDS011;31595;51.418;7.572;2022-10-15T14:57:58;1.08;;;0.68;;
45887;SDS011;31595;51.418;7.572;2022-10-15T15:00:28;1.33;;;0.80;;
45887;SDS011;31595;51.418;7.572;2022-10-15T15:03:00;2.20;;;1.17;;
45887;SDS011;31595;51.418;7.572;2022-10-15T15:05:43;2.53;;;1.00;;
45887;SDS011;31595;51.418;7.572;2022-10-15T15:08:11;3.03;;;0.82;;
45887;SDS011;31595;51.418;7.572;2022-10-15T15:10:42;1.98;;;0.70;;
45887;SDS011;31595;51.418;7.572;2022-10-15T15:13:11;1.20;;;0.60;;
45887;SDS011;31595;51.418;7.572;2022-10-15T15:15:44;1.50;;;0.63;;
45887;SDS011;31595;51.418;7.572;2022-10-15T15:18:16;0.98;;;0.52;;
45887;SDS011;31595;51.418;7.572;2022-10-15T15:20:49;1.33;;;0.50;;
45887;SDS011;31595;51.418;7.572;2022-10-15T15:23:17;0.90;;;0.50;;
45887;SDS011;31595;51.418;7.572;2022-10-15T15:25:53;1.13;;;0.60;;
45887;SDS011;31595;51.418;7.572;2022-10-15T15:28:22;1.20;;;0.52;;